sensor_id;sensor_type;location;lat;lon;timestamp;pressure;altitude;pressure_sealevel;temperature;humidity
83483;BME280;73420;32.678;-85.380;2024-02-21T00:01:05;99370.23;;;21.68;9.89
83483;BME280;73420;32.678;-85.380;2024-02-21T00:03:29;99370.80;;;21.46;9.86
83483;BME280;73420;32.678;-85.380;2024-02-21T00:05:55;99376.15;;;21.57;9.82
83483;BME280;73420;32.678;-85.380;2024-02-21T00:08:21;99383.04;;;21.47;10.20
83483;BME280;73420;32.678;-85.380;2024-02-21T00:10:46;99387.78;;;21.62;10.42
83483;BME280;73420;32.678;-85.380;2024-02-21T00:13:15;99393.17;;;21.63;10.03
83483;BME280;73420;32.678;-85.380;2024-02-21T00:15:37;99397.24;;;21.60;10.08
83483;BME280;73420;32.678;-85.380;2024-02-21T00:18:03;99398.35;;;21.28;9.98
83483;BME280;73420;32.678;-85.380;2024-02-21T00:20:28;99402.45;;;21.47;9.79
83483;BME280;73420;32.678;-85.380;2024-02-21T00:22:53;99409.06;;;21.08;10.56
83483;BME280;73420;32.678;-85.380;2024-02-21T00:25:20;99416.81;;;21.10;10.43
83483;BME280;73420;32.678;-85.380;2024-02-21T00:27:44;99420.20;;;20.79;10.46
83483;BME280;73420;32.678;-85.380;2024-02-21T00:30:11;99424.01;;;20.75;10.25
83483;BME280;73420;32.678;-85.380;2024-02-21T00:32:36;99432.48;;;20.89;10.44
83483;BME280;73420;32.678;-85.380;2024-02-21T00:35:01;99439.48;;;20.73;10.68
83483;BME280;73420;32.678;-85.380;2024-02-21T00:37:27;99445.25;;;20.61;10.19
83483;BME280;73420;32.678;-85.380;2024-02-21T00:39:54;99449.78;;;20.58;10.62
83483;BME280;73420;32.678;-85.380;2024-02-21T00:42:18;99453.06;;;20.34;11.10
83483;BME280;73420;32.678;-85.380;2024-02-21T00:44:43;99452.52;;;20.53;11.73
83483;BME280;73420;32.678;-85.380;2024-02-21T00:47:10;99456.84;;;20.61;11.61
83483;BME280;73420;32.678;-85.380;2024-02-21T00:49:36;99458.12;;;20.41;11.91
83483;BME280;73420;32.678;-85.380;2024-02-21T00:52:00;99462.25;;;20.45;11.44
83483;BME280;73420;32.678;-85.380;2024-02-21T00:54:25;99469.09;;;20.39;10.75
83483;BME280;73420;32.678;-85.380;2024-02-21T00:56:50;99472.80;;;20.72;10.74
83483;BME280;73420;32.678;-85.380;2024-02-21T00:59:15;99477.11;;;20.78;10.93
83483;BME280;73420;32.678;-85.380;2024-02-21T01:01:43;99477.05;;;20.46;10.96
83483;BME280;73420;32.678;-85.380;2024-02-21T01:04:06;99476.57;;;20.25;11.41
83483;BME280;73420;32.678;-85.380;2024-02-21T01:06:32;99472.71;;;20.09;11.48
83483;BME280;73420;32.678;-85.380;2024-02-21T01:08:57;99471.60;;;19.96;11.77
83483;BME280;73420;32.678;-85.380;2024-02-21T01:11:22;99470.30;;;19.87;12.94
83483;BME280;73420;32.678;-85.380;2024-02-21T01:13:53;99470.10;;;19.59;12.58
83483;BME280;73420;32.678;-85.380;2024-02-21T01:16:13;99476.22;;;19.76;12.37
83483;BME280;73420;32.678;-85.380;2024-02-21T01:18:39;99478.30;;;19.74;12.12
83483;BME280;73420;32.678;-85.380;2024-02-21T01:21:04;99473.79;;;20.22;11.90
83483;BME280;73420;32.678;-85.380;2024-02-21T01:23:29;99466.45;;;19.76;12.78
83483;BME280;73420;32.678;-85.380;2024-02-21T01:25:56;99463.22;;;19.47;13.08
83483;BME280;73420;32.678;-85.380;2024-02-21T01:28:21;99464.77;;;19.88;13.73
83483;BME280;73420;32.678;-85.380;2024-02-21T01:30:46;99465.43;;;19.58;13.34
83483;BME280;73420;32.678;-85.380;2024-02-21T01:33:12;99471.67;;;19.82;13.29
83483;BME280;73420;32.678;-85.380;2024-02-21T01:35:37;99472.15;;;19.70;12.70
83483;BME280;73420;32.678;-85.380;2024-02-21T01:38:07;99468.03;;;19.33;12.59
83483;BME280;73420;32.678;-85.380;2024-02-21T01:40:27;99468.04;;;19.72;12.29
83483;BME280;73420;32.678;-85.380;2024-02-21T01:42:55;99465.60;;;19.55;11.71
83483;BME280;73420;32.678;-85.380;2024-02-21T01:45:18;99464.65;;;19.67;11.57
83483;BME280;73420;32.678;-85.380;2024-02-21T01:47:43;99470.17;;;19.60;11.34
83483;BME280;73420;32.678;-85.380;2024-02-21T01:50:10;99470.38;;;19.95;11.31
83483;BME280;73420;32.678;-85.380;2024-02-21T01:52:35;99469.83;;;20.20;11.28
83483;BME280;73420;32.678;-85.380;2024-02-21T01:55:00;99471.30;;;20.23;11.20
83483;BME280;73420;32.678;-85.380;2024-02-21T01:57:25;99474.84;;;20.01;11.32
83483;BME280;73420;32.678;-85.380;2024-02-21T01:59:50;99475.31;;;19.97;13.00
83483;BME280;73420;32.678;-85.380;2024-02-21T02:02:21;99480.46;;;19.49;12.95
83483;BME280;73420;32.678;-85.380;2024-02-21T02:04:41;99482.17;;;18.70;12.68
83483;BME280;73420;32.678;-85.380;2024-02-21T02:07:07;99482.97;;;18.15;13.31
83483;BME280;73420;32.678;-85.380;2024-02-21T02:09:31;99485.11;;;18.26;14.57
83483;BME280;73420;32.678;-85.380;2024-02-21T02:11:57;99487.25;;;18.42;16.16
83483;BME280;73420;32.678;-85.380;2024-02-21T02:14:26;99485.91;;;17.98;15.98
83483;BME280;73420;32.678;-85.380;2024-02-21T02:16:48;99491.84;;;17.89;14.28
83483;BME280;73420;32.678;-85.380;2024-02-21T02:19:14;99495.08;;;18.25;13.28
83483;BME280;73420;32.678;-85.380;2024-02-21T02:21:42;99494.53;;;18.55;13.24
83483;BME280;73420;32.678;-85.380;2024-02-21T02:24:05;99492.57;;;18.40;13.53
83483;BME280;73420;32.678;-85.380;2024-02-21T02:26:32;99489.36;;;18.77;14.36
83483;BME280;73420;32.678;-85.380;2024-02-21T02:28:56;99489.29;;;18.56;13.72
83483;BME280;73420;32.678;-85.380;2024-02-21T02:31:21;99495.42;;;18.41;13.81
83483;BME280;73420;32.678;-85.380;2024-02-21T02:33:47;99496.45;;;18.44;14.15
83483;BME280;73420;32.678;-85.380;2024-02-21T02:36:12;99497.64;;;18.59;13.11
83483;BME280;73420;32.678;-85.380;2024-02-21T02:38:38;99504.30;;;18.51;14.58
83483;BME280;73420;32.678;-85.380;2024-02-21T02:41:03;99504.00;;;18.50;13.09
83483;BME280;73420;32.678;-85.380;2024-02-21T02:43:29;99503.65;;;18.78;12.80
83483;BME280;73420;32.678;-85.380;2024-02-21T02:45:54;99503.39;;;18.75;12.92
83483;BME280;73420;32.678;-85.380;2024-02-21T02:48:19;99502.80;;;18.83;12.78
83483;BME280;73420;32.678;-85.380;2024-02-21T02:50:45;99503.57;;;19.12;12.50
83483;BME280;73420;32.678;-85.380;2024-02-21T02:53:11;99501.16;;;18.92;13.12
83483;BME280;73420;32.678;-85.380;2024-02-21T02:55:36;99502.63;;;18.89;13.28
83483;BME280;73420;32.678;-85.380;2024-02-21T02:58:02;99505.52;;;18.71;12.39
83483;BME280;73420;32.678;-85.380;2024-02-21T03:00:27;99506.27;;;18.79;12.46
83483;BME280;73420;32.678;-85.380;2024-02-21T03:02:53;99506.35;;;18.86;12.42
83483;BME280;73420;32.678;-85.380;2024-02-21T03:05:19;99506.12;;;18.97;12.51
83483;BME280;73420;32.678;-85.380;2024-02-21T03:07:44;99502.23;;;19.22;12.23
83483;BME280;73420;32.678;-85.380;2024-02-21T03:10:09;99502.79;;;19.17;13.30
83483;BME280;73420;32.678;-85.380;2024-02-21T03:12:35;99502.20;;;18.59;12.61
83483;BME280;73420;32.678;-85.380;2024-02-21T03:15:05;99499.00;;;19.01;12.67
83483;BME280;73420;32.678;-85.380;2024-02-21T03:17:26;99499.31;;;19.04;12.47
83483;BME280;73420;32.678;-85.380;2024-02-21T03:19:51;99502.68;;;19.10;12.26
83483;BME280;73420;32.678;-85.380;2024-02-21T03:22:16;99501.62;;;18.85;12.35
83483;BME280;73420;32.678;-85.380;2024-02-21T03:24:42;99492.98;;;18.78;12.71
83483;BME280;73420;32.678;-85.380;2024-02-21T03:27:08;99488.68;;;19.01;12.76
83483;BME280;73420;32.678;-85.380;2024-02-21T03:29:33;99483.03;;;18.80;13.23
83483;BME280;73420;32.678;-85.380;2024-02-21T03:31:59;99479.49;;;18.80;13.29
83483;BME280;73420;32.678;-85.380;2024-02-21T03:34:24;99476.11;;;18.62;12.66
83483;BME280;73420;32.678;-85.380;2024-02-21T03:36:49;99470.17;;;18.98;12.23
83483;BME280;73420;32.678;-85.380;2024-02-21T03:39:15;99469.91;;;19.06;12.17
83483;BME280;73420;32.678;-85.380;2024-02-21T03:41:40;99475.04;;;19.13;12.09
83483;BME280;73420;32.678;-85.380;2024-02-21T03:44:05;99479.03;;;18.88;13.37
83483;BME280;73420;32.678;-85.380;2024-02-21T03:46:31;99483.15;;;19.08;14.10
83483;BME280;73420;32.678;-85.380;2024-02-21T03:48:57;99484.34;;;19.34;14.13
83483;BME280;73420;32.678;-85.380;2024-02-21T03:51:23;99478.30;;;18.63;14.18
83483;BME280;73420;32.678;-85.380;2024-02-21T03:53:48;99472.93;;;18.22;14.57
83483;BME280;73420;32.678;-85.380;2024-02-21T03:56:13;99470.93;;;17.99;15.35
83483;BME280;73420;32.678;-85.380;2024-02-21T03:58:39;99466.05;;;17.92;15.30
83483;BME280;73420;32.678;-85.380;2024-02-21T04:01:05;99463.60;;;18.39;15.39
83483;BME280;73420;32.678;-85.380;2024-02-21T04:03:31;99459.72;;;17.72;15.38
83483;BME280;73420;32.678;-85.380;2024-02-21T04:05:55;99456.37;;;17.78;15.46
83483;BME280;73420;32.678;-85.380;2024-02-21T04:08:21;99454.28;;;17.86;15.66
83483;BME280;73420;32.678;-85.380;2024-02-21T04:10:47;99457.98;;;17.40;15.64
83483;BME280;73420;32.678;-85.380;2024-02-21T04:13:11;99459.27;;;17.69;14.73
83483;BME280;73420;32.678;-85.380;2024-02-21T04:15:37;99459.44;;;17.69;15.11
83483;BME280;73420;32.678;-85.380;2024-02-21T04:18:02;99462.00;;;18.02;14.35
83483;BME280;73420;32.678;-85.380;2024-02-21T04:20:28;99461.55;;;17.52;14.70
83483;BME280;73420;32.678;-85.380;2024-02-21T04:22:53;99460.91;;;17.30;14.69
83483;BME280;73420;32.678;-85.380;2024-02-21T04:25:19;99459.39;;;18.13;14.68
83483;BME280;73420;32.678;-85.380;2024-02-21T04:27:45;99461.94;;;17.93;15.14
83483;BME280;73420;32.678;-85.380;2024-02-21T04:30:11;99462.46;;;18.02;14.21
83483;BME280;73420;32.678;-85.380;2024-02-21T04:32:36;99460.81;;;17.65;14.11
83483;BME280;73420;32.678;-85.380;2024-02-21T04:35:01;99460.10;;;17.61;14.02
83483;BME280;73420;32.678;-85.380;2024-02-21T04:37:26;99464.36;;;17.69;14.30
83483;BME280;73420;32.678;-85.380;2024-02-21T04:39:52;99465.45;;;17.74;14.90
83483;BME280;73420;32.678;-85.380;2024-02-21T04:42:17;99468.50;;;17.82;15.62
83483;BME280;73420;32.678;-85.380;2024-02-21T04:44:43;99463.76;;;17.65;14.30
83483;BME280;73420;32.678;-85.380;2024-02-21T04:47:08;99466.85;;;18.19;13.73
83483;BME280;73420;32.678;-85.380;2024-02-21T04:49:34;99468.77;;;17.91;13.25
83483;BME280;73420;32.678;-85.380;2024-02-21T04:52:06;99474.33;;;18.31;13.29
83483;BME280;73420;32.678;-85.380;2024-02-21T04:54:24;99479.83;;;18.20;13.29
83483;BME280;73420;32.678;-85.380;2024-02-21T04:56:50;99487.19;;;17.68;13.17
83483;BME280;73420;32.678;-85.380;2024-02-21T04:59:15;99491.01;;;17.95;14.35
83483;BME280;73420;32.678;-85.380;2024-02-21T05:01:40;99490.68;;;18.24;14.02
83483;BME280;73420;32.678;-85.380;2024-02-21T05:04:09;99493.74;;;18.39;12.87
83483;BME280;73420;32.678;-85.380;2024-02-21T05:06:32;99494.71;;;18.45;12.96
83483;BME280;73420;32.678;-85.380;2024-02-21T05:08:56;99496.23;;;18.37;13.02
83483;BME280;73420;32.678;-85.380;2024-02-21T05:11:22;99494.44;;;17.78;13.26
83483;BME280;73420;32.678;-85.380;2024-02-21T05:13:47;99500.31;;;17.82;13.05
83483;BME280;73420;32.678;-85.380;2024-02-21T05:16:13;99502.37;;;18.28;12.98
83483;BME280;73420;32.678;-85.380;2024-02-21T05:18:37;99500.43;;;18.18;12.97
83483;BME280;73420;32.678;-85.380;2024-02-21T05:21:03;99501.33;;;18.11;13.15
83483;BME280;73420;32.678;-85.380;2024-02-21T05:23:28;99507.11;;;17.51;13.14
83483;BME280;73420;32.678;-85.380;2024-02-21T05:25:54;99511.47;;;17.87;14.55
83483;BME280;73420;32.678;-85.380;2024-02-21T05:28:19;99513.74;;;17.58;14.27
83483;BME280;73420;32.678;-85.380;2024-02-21T05:30:45;99514.52;;;17.70;13.84
83483;BME280;73420;32.678;-85.380;2024-02-21T05:33:10;99515.88;;;17.44;15.07
83483;BME280;73420;32.678;-85.380;2024-02-21T05:35:36;99514.52;;;17.67;13.75
83483;BME280;73420;32.678;-85.380;2024-02-21T05:38:01;99510.98;;;17.90;14.55
83483;BME280;73420;32.678;-85.380;2024-02-21T05:40:30;99509.61;;;17.60;14.59
83483;BME280;73420;32.678;-85.380;2024-02-21T05:42:52;99512.45;;;17.56;13.63
83483;BME280;73420;32.678;-85.380;2024-02-21T05:45:17;99515.96;;;17.74;14.57
83483;BME280;73420;32.678;-85.380;2024-02-21T05:47:43;99516.18;;;17.80;14.65
83483;BME280;73420;32.678;-85.380;2024-02-21T05:50:09;99516.91;;;17.57;14.51
83483;BME280;73420;32.678;-85.380;2024-02-21T05:52:34;99516.30;;;17.74;14.21
83483;BME280;73420;32.678;-85.380;2024-02-21T05:54:59;99511.54;;;17.72;13.60
83483;BME280;73420;32.678;-85.380;2024-02-21T05:57:24;99514.95;;;17.83;14.88
83483;BME280;73420;32.678;-85.380;2024-02-21T05:59:49;99518.37;;;17.42;14.19
83483;BME280;73420;32.678;-85.380;2024-02-21T06:02:15;99522.79;;;17.33;14.34
83483;BME280;73420;32.678;-85.380;2024-02-21T06:04:43;99523.51;;;17.01;13.81
83483;BME280;73420;32.678;-85.380;2024-02-21T06:07:05;99523.19;;;17.54;13.53
83483;BME280;73420;32.678;-85.380;2024-02-21T06:09:31;99526.29;;;17.73;13.17
83483;BME280;73420;32.678;-85.380;2024-02-21T06:11:56;99528.93;;;17.61;13.45
83483;BME280;73420;32.678;-85.380;2024-02-21T06:14:22;99533.48;;;17.71;14.41
83483;BME280;73420;32.678;-85.380;2024-02-21T06:16:48;99531.42;;;17.49;14.17
83483;BME280;73420;32.678;-85.380;2024-02-21T06:19:13;99535.39;;;17.50;14.07
83483;BME280;73420;32.678;-85.380;2024-02-21T06:21:39;99537.31;;;17.26;14.92
83483;BME280;73420;32.678;-85.380;2024-02-21T06:24:04;99532.44;;;17.41;13.73
83483;BME280;73420;32.678;-85.380;2024-02-21T06:26:29;99527.38;;;17.17;14.25
83483;BME280;73420;32.678;-85.380;2024-02-21T06:28:59;99532.39;;;17.35;14.75
83483;BME280;73420;32.678;-85.380;2024-02-21T06:31:20;99532.65;;;17.35;14.68
83483;BME280;73420;32.678;-85.380;2024-02-21T06:33:46;99529.05;;;17.13;14.84
83483;BME280;73420;32.678;-85.380;2024-02-21T06:36:11;99528.53;;;17.23;14.19
83483;BME280;73420;32.678;-85.380;2024-02-21T06:38:37;99519.90;;;17.16;14.46
83483;BME280;73420;32.678;-85.380;2024-02-21T06:41:02;99515.67;;;17.22;14.58
83483;BME280;73420;32.678;-85.380;2024-02-21T06:43:27;99510.33;;;17.40;14.48
83483;BME280;73420;32.678;-85.380;2024-02-21T06:45:52;99517.55;;;17.49;14.42
83483;BME280;73420;32.678;-85.380;2024-02-21T06:48:18;99519.21;;;17.26;14.23
83483;BME280;73420;32.678;-85.380;2024-02-21T06:50:43;99516.06;;;17.65;14.00
83483;BME280;73420;32.678;-85.380;2024-02-21T06:53:11;99516.76;;;17.28;14.40
83483;BME280;73420;32.678;-85.380;2024-02-21T06:55:35;99514.69;;;17.35;14.29
83483;BME280;73420;32.678;-85.380;2024-02-21T06:58:00;99515.33;;;17.29;13.94
83483;BME280;73420;32.678;-85.380;2024-02-21T07:00:25;99509.38;;;17.51;13.88
83483;BME280;73420;32.678;-85.380;2024-02-21T07:02:50;99505.52;;;17.62;13.90
83483;BME280;73420;32.678;-85.380;2024-02-21T07:05:16;99504.54;;;17.63;13.97
83483;BME280;73420;32.678;-85.380;2024-02-21T07:07:40;99499.12;;;17.78;14.54
83483;BME280;73420;32.678;-85.380;2024-02-21T07:10:06;99499.20;;;17.69;13.88
83483;BME280;73420;32.678;-85.380;2024-02-21T07:12:31;99498.72;;;17.51;13.90
83483;BME280;73420;32.678;-85.380;2024-02-21T07:14:57;99501.37;;;17.63;13.84
83483;BME280;73420;32.678;-85.380;2024-02-21T07:17:22;99499.90;;;17.72;14.33
83483;BME280;73420;32.678;-85.380;2024-02-21T07:19:48;99500.71;;;17.65;14.60
83483;BME280;73420;32.678;-85.380;2024-02-21T07:22:13;99499.54;;;17.83;13.80
83483;BME280;73420;32.678;-85.380;2024-02-21T07:24:39;99501.04;;;17.64;13.45
83483;BME280;73420;32.678;-85.380;2024-02-21T07:27:04;99491.60;;;17.72;13.67
83483;BME280;73420;32.678;-85.380;2024-02-21T07:29:29;99489.98;;;17.81;13.42
83483;BME280;73420;32.678;-85.380;2024-02-21T07:31:54;99487.74;;;17.73;13.53
83483;BME280;73420;32.678;-85.380;2024-02-21T07:34:20;99485.26;;;18.04;13.78
83483;BME280;73420;32.678;-85.380;2024-02-21T07:36:45;99481.39;;;17.92;13.81
83483;BME280;73420;32.678;-85.380;2024-02-21T07:39:10;99481.41;;;17.69;13.53
83483;BME280;73420;32.678;-85.380;2024-02-21T07:41:41;99478.97;;;17.75;13.41
83483;BME280;73420;32.678;-85.380;2024-02-21T07:44:01;99477.46;;;17.93;13.19
83483;BME280;73420;32.678;-85.380;2024-02-21T07:46:26;99472.54;;;17.75;13.51
83483;BME280;73420;32.678;-85.380;2024-02-21T07:48:52;99466.17;;;17.65;13.51
83483;BME280;73420;32.678;-85.380;2024-02-21T07:51:17;99467.02;;;17.72;13.11
83483;BME280;73420;32.678;-85.380;2024-02-21T07:53:43;99467.54;;;17.97;13.52
83483;BME280;73420;32.678;-85.380;2024-02-21T07:56:08;99465.45;;;17.70;13.19
83483;BME280;73420;32.678;-85.380;2024-02-21T07:58:33;99467.55;;;17.79;13.87
83483;BME280;73420;32.678;-85.380;2024-02-21T08:00:58;99468.76;;;17.47;13.64
83483;BME280;73420;32.678;-85.380;2024-02-21T08:03:24;99470.16;;;17.30;13.92
83483;BME280;73420;32.678;-85.380;2024-02-21T08:05:50;99465.69;;;17.48;15.00
83483;BME280;73420;32.678;-85.380;2024-02-21T08:08:15;99464.79;;;17.08;14.45
83483;BME280;73420;32.678;-85.380;2024-02-21T08:10:40;99469.20;;;17.37;14.48
83483;BME280;73420;32.678;-85.380;2024-02-21T08:13:06;99466.70;;;17.23;14.13
83483;BME280;73420;32.678;-85.380;2024-02-21T08:15:31;99463.63;;;17.08;13.58
83483;BME280;73420;32.678;-85.380;2024-02-21T08:17:57;99465.41;;;17.18;13.37
83483;BME280;73420;32.678;-85.380;2024-02-21T08:20:22;99467.14;;;17.38;13.45
83483;BME280;73420;32.678;-85.380;2024-02-21T08:22:47;99465.22;;;17.26;13.55
83483;BME280;73420;32.678;-85.380;2024-02-21T08:25:13;99464.13;;;17.31;14.90
83483;BME280;73420;32.678;-85.380;2024-02-21T08:27:39;99464.62;;;16.86;14.56
83483;BME280;73420;32.678;-85.380;2024-02-21T08:30:07;99463.87;;;17.27;14.60
83483;BME280;73420;32.678;-85.380;2024-02-21T08:32:29;99460.92;;;17.23;13.85
83483;BME280;73420;32.678;-85.380;2024-02-21T08:34:54;99455.69;;;16.95;14.65
83483;BME280;73420;32.678;-85.380;2024-02-21T08:37:20;99455.17;;;16.81;14.69
83483;BME280;73420;32.678;-85.380;2024-02-21T08:39:45;99462.72;;;16.73;14.66
83483;BME280;73420;32.678;-85.380;2024-02-21T08:42:16;99460.36;;;16.84;14.64
83483;BME280;73420;32.678;-85.380;2024-02-21T08:44:36;99454.22;;;16.89;14.67
83483;BME280;73420;32.678;-85.380;2024-02-21T08:47:01;99453.08;;;16.97;14.58
83483;BME280;73420;32.678;-85.380;2024-02-21T08:49:26;99445.51;;;16.91;14.67
83483;BME280;73420;32.678;-85.380;2024-02-21T08:51:52;99442.22;;;16.75;13.96
83483;BME280;73420;32.678;-85.380;2024-02-21T08:54:17;99441.36;;;17.16;13.61
83483;BME280;73420;32.678;-85.380;2024-02-21T08:56:43;99444.26;;;17.20;13.55
83483;BME280;73420;32.678;-85.380;2024-02-21T08:59:08;99446.15;;;17.27;13.45
83483;BME280;73420;32.678;-85.380;2024-02-21T09:01:34;99439.24;;;17.23;13.71
83483;BME280;73420;32.678;-85.380;2024-02-21T09:04:00;99441.15;;;16.56;15.74
83483;BME280;73420;32.678;-85.380;2024-02-21T09:06:28;99445.75;;;16.48;16.16
83483;BME280;73420;32.678;-85.380;2024-02-21T09:08:50;99448.44;;;16.16;15.86
83483;BME280;73420;32.678;-85.380;2024-02-21T09:11:15;99445.50;;;16.09;14.98
83483;BME280;73420;32.678;-85.380;2024-02-21T09:13:41;99439.46;;;16.22;14.92
83483;BME280;73420;32.678;-85.380;2024-02-21T09:16:06;99442.60;;;16.39;14.59
83483;BME280;73420;32.678;-85.380;2024-02-21T09:18:32;99443.51;;;16.52;15.66
83483;BME280;73420;32.678;-85.380;2024-02-21T09:20:57;99440.63;;;16.23;16.49
83483;BME280;73420;32.678;-85.380;2024-02-21T09:23:24;99442.38;;;15.94;15.77
83483;BME280;73420;32.678;-85.380;2024-02-21T09:25:48;99442.95;;;15.82;15.23
83483;BME280;73420;32.678;-85.380;2024-02-21T09:28:13;99440.76;;;15.75;15.23
83483;BME280;73420;32.678;-85.380;2024-02-21T09:30:44;99436.18;;;16.13;15.44
83483;BME280;73420;32.678;-85.380;2024-02-21T09:33:04;99435.72;;;15.84;16.82
83483;BME280;73420;32.678;-85.380;2024-02-21T09:35:29;99436.68;;;15.80;15.70
83483;BME280;73420;32.678;-85.380;2024-02-21T09:37:54;99435.53;;;16.04;15.38
83483;BME280;73420;32.678;-85.380;2024-02-21T09:40:20;99434.63;;;15.83;15.33
83483;BME280;73420;32.678;-85.380;2024-02-21T09:42:47;99434.70;;;15.86;16.66
83483;BME280;73420;32.678;-85.380;2024-02-21T09:45:18;99441.13;;;15.63;16.96
83483;BME280;73420;32.678;-85.380;2024-02-21T09:47:42;99446.18;;;15.70;17.29
83483;BME280;73420;32.678;-85.380;2024-02-21T09:50:03;99451.27;;;15.49;16.78
83483;BME280;73420;32.678;-85.380;2024-02-21T09:52:26;99455.14;;;15.27;16.58
83483;BME280;73420;32.678;-85.380;2024-02-21T09:54:54;99453.93;;;15.40;16.41
83483;BME280;73420;32.678;-85.380;2024-02-21T09:57:17;99451.84;;;15.13;16.91
83483;BME280;73420;32.678;-85.380;2024-02-21T09:59:43;99452.61;;;14.92;17.78
83483;BME280;73420;32.678;-85.380;2024-02-21T10:02:08;99452.04;;;14.78;16.50
83483;BME280;73420;32.678;-85.380;2024-02-21T10:04:34;99453.98;;;14.93;16.39
83483;BME280;73420;32.678;-85.380;2024-02-21T10:06:59;99454.24;;;14.70;17.82
83483;BME280;73420;32.678;-85.380;2024-02-21T10:09:25;99457.26;;;14.79;17.52
83483;BME280;73420;32.678;-85.380;2024-02-21T10:11:50;99462.81;;;14.34;17.47
83483;BME280;73420;32.678;-85.380;2024-02-21T10:14:15;99465.97;;;14.35;17.18
83483;BME280;73420;32.678;-85.380;2024-02-21T10:16:41;99473.09;;;14.68;17.74
83483;BME280;73420;32.678;-85.380;2024-02-21T10:19:06;99482.29;;;14.34;17.79
83483;BME280;73420;32.678;-85.380;2024-02-21T10:21:31;99487.02;;;14.38;17.98
83483;BME280;73420;32.678;-85.380;2024-02-21T10:23:57;99490.65;;;14.56;19.10
83483;BME280;73420;32.678;-85.380;2024-02-21T10:26:22;99490.87;;;14.21;18.87
83483;BME280;73420;32.678;-85.380;2024-02-21T10:28:48;99491.48;;;14.34;18.27
83483;BME280;73420;32.678;-85.380;2024-02-21T10:31:22;99492.50;;;14.17;18.51
83483;BME280;73420;32.678;-85.380;2024-02-21T10:33:38;99496.60;;;14.42;19.10
83483;BME280;73420;32.678;-85.380;2024-02-21T10:36:09;99499.94;;;14.13;19.16
83483;BME280;73420;32.678;-85.380;2024-02-21T10:38:29;99501.58;;;14.20;21.16
83483;BME280;73420;32.678;-85.380;2024-02-21T10:41:00;99497.94;;;14.33;19.36
83483;BME280;73420;32.678;-85.380;2024-02-21T10:43:21;99499.49;;;14.54;18.61
83483;BME280;73420;32.678;-85.380;2024-02-21T10:45:47;99501.14;;;14.25;20.37
83483;BME280;73420;32.678;-85.380;2024-02-21T10:48:13;99503.34;;;14.15;20.40
83483;BME280;73420;32.678;-85.380;2024-02-21T10:50:47;99504.60;;;14.22;21.16
83483;BME280;73420;32.678;-85.380;2024-02-21T10:53:08;99507.63;;;14.14;22.03
83483;BME280;73420;32.678;-85.380;2024-02-21T10:55:37;99514.52;;;14.02;22.44
83483;BME280;73420;32.678;-85.380;2024-02-21T10:57:52;99519.68;;;14.12;21.93
83483;BME280;73420;32.678;-85.380;2024-02-21T11:00:18;99519.98;;;14.41;22.13
83483;BME280;73420;32.678;-85.380;2024-02-21T11:02:44;99517.68;;;14.06;21.95
83483;BME280;73420;32.678;-85.380;2024-02-21T11:05:09;99519.72;;;14.15;21.09
83483;BME280;73420;32.678;-85.380;2024-02-21T11:07:37;99517.78;;;14.03;21.74
83483;BME280;73420;32.678;-85.380;2024-02-21T11:10:00;99522.43;;;14.22;21.86
83483;BME280;73420;32.678;-85.380;2024-02-21T11:12:26;99525.68;;;14.24;21.35
83483;BME280;73420;32.678;-85.380;2024-02-21T11:14:50;99529.61;;;13.92;21.52
83483;BME280;73420;32.678;-85.380;2024-02-21T11:17:16;99531.49;;;14.09;21.49
83483;BME280;73420;32.678;-85.380;2024-02-21T11:19:48;99530.04;;;14.02;21.06
83483;BME280;73420;32.678;-85.380;2024-02-21T11:22:15;99527.13;;;14.08;20.31
83483;BME280;73420;32.678;-85.380;2024-02-21T11:24:33;99525.28;;;14.03;20.38
83483;BME280;73420;32.678;-85.380;2024-02-21T11:27:08;99535.34;;;14.21;20.82
83483;BME280;73420;32.678;-85.380;2024-02-21T11:29:25;99539.56;;;13.92;20.56
83483;BME280;73420;32.678;-85.380;2024-02-21T11:31:53;99540.46;;;13.81;20.18
83483;BME280;73420;32.678;-85.380;2024-02-21T11:34:18;99540.42;;;13.72;21.41
83483;BME280;73420;32.678;-85.380;2024-02-21T11:36:47;99537.78;;;13.60;21.25
83483;BME280;73420;32.678;-85.380;2024-02-21T11:39:05;99537.59;;;13.80;21.53
83483;BME280;73420;32.678;-85.380;2024-02-21T11:41:30;99542.54;;;13.93;20.99
83483;BME280;73420;32.678;-85.380;2024-02-21T11:43:55;99551.06;;;13.99;20.46
83483;BME280;73420;32.678;-85.380;2024-02-21T11:46:21;99557.32;;;13.59;20.40
83483;BME280;73420;32.678;-85.380;2024-02-21T11:48:46;99558.36;;;13.60;20.14
83483;BME280;73420;32.678;-85.380;2024-02-21T11:51:21;99555.32;;;13.76;18.69
83483;BME280;73420;32.678;-85.380;2024-02-21T11:53:37;99555.70;;;13.75;20.94
83483;BME280;73420;32.678;-85.380;2024-02-21T11:56:07;99553.58;;;13.68;20.71
83483;BME280;73420;32.678;-85.380;2024-02-21T11:58:28;99556.71;;;13.96;20.69
83483;BME280;73420;32.678;-85.380;2024-02-21T12:00:53;99559.76;;;13.44;20.44
83483;BME280;73420;32.678;-85.380;2024-02-21T12:03:18;99561.65;;;13.47;20.45
83483;BME280;73420;32.678;-85.380;2024-02-21T12:05:44;99561.96;;;13.47;20.20
83483;BME280;73420;32.678;-85.380;2024-02-21T12:08:09;99559.76;;;13.46;20.02
83483;BME280;73420;32.678;-85.380;2024-02-21T12:10:35;99563.35;;;13.40;20.23
83483;BME280;73420;32.678;-85.380;2024-02-21T12:13:06;99568.71;;;13.47;20.41
83483;BME280;73420;32.678;-85.380;2024-02-21T12:15:26;99566.51;;;13.48;18.71
83483;BME280;73420;32.678;-85.380;2024-02-21T12:17:52;99562.47;;;13.84;19.37
83483;BME280;73420;32.678;-85.380;2024-02-21T12:20:22;99561.09;;;13.40;20.19
83483;BME280;73420;32.678;-85.380;2024-02-21T12:22:42;99567.40;;;13.96;19.43
83483;BME280;73420;32.678;-85.380;2024-02-21T12:25:16;99570.03;;;14.30;19.45
83483;BME280;73420;32.678;-85.380;2024-02-21T12:27:34;99574.39;;;13.81;19.48
83483;BME280;73420;32.678;-85.380;2024-02-21T12:29:59;99580.99;;;13.90;19.22